createdAt,value
2023-05-01T00:00:33.474Z,8.65
2023-05-01T00:03:01.158Z,8.61
2023-05-01T00:05:28.937Z,8.59
2023-05-01T00:07:56.534Z,8.58
2023-05-01T00:10:24.506Z,8.58
2023-05-01T00:12:52.292Z,8.58
2023-05-01T00:15:19.900Z,8.59
2023-05-01T00:17:47.523Z,8.60
2023-05-01T00:20:15.658Z,8.59
2023-05-01T00:22:43.626Z,8.60
2023-05-01T00:25:12.167Z,8.58
2023-05-01T00:27:39.820Z,8.56
2023-05-01T00:30:07.594Z,8.55
2023-05-01T00:32:35.655Z,8.55
2023-05-01T00:35:04.103Z,8.54
2023-05-01T00:37:32.466Z,8.53
2023-05-01T00:40:00.068Z,8.52
2023-05-01T00:42:27.726Z,8.51
2023-05-01T00:44:55.318Z,8.49
2023-05-01T00:47:23.323Z,8.48
2023-05-01T00:49:51.484Z,8.46
2023-05-01T00:52:19.109Z,8.44
2023-05-01T00:54:51.996Z,8.43
2023-05-01T00:57:19.665Z,8.41
2023-05-01T00:59:47.611Z,8.37
2023-05-01T01:02:15.253Z,8.33
2023-05-01T01:04:43.157Z,8.26
2023-05-01T01:07:10.730Z,8.21
2023-05-01T01:09:38.320Z,8.15
2023-05-01T01:12:06.281Z,8.10
2023-05-01T01:14:34.436Z,8.06
2023-05-01T01:17:02.127Z,8.02
2023-05-01T01:19:29.731Z,8.01
2023-05-01T01:21:57.298Z,7.97
2023-05-01T01:24:25.267Z,7.95
2023-05-01T01:26:54.203Z,7.94
2023-05-01T01:29:21.821Z,7.89
2023-05-01T01:31:49.396Z,7.86
2023-05-01T01:34:17.056Z,7.83
2023-05-01T01:36:45.018Z,7.81
2023-05-01T01:39:12.716Z,7.76
2023-05-01T01:41:40.363Z,7.73
2023-05-01T01:44:07.994Z,7.69
2023-05-01T01:46:35.796Z,7.68
2023-05-01T01:49:04.639Z,7.68
2023-05-01T01:51:32.424Z,7.68
2023-05-01T01:53:59.990Z,7.68
2023-05-01T01:56:28.057Z,7.69
2023-05-01T01:58:55.624Z,7.70
2023-05-01T02:01:23.582Z,7.71
2023-05-01T02:03:51.360Z,7.72
2023-05-01T02:06:19.013Z,7.72
2023-05-01T02:08:46.583Z,7.68
2023-05-01T02:11:14.711Z,7.64
2023-05-01T02:13:42.656Z,7.60
2023-05-01T02:16:10.328Z,7.56
2023-05-01T02:18:37.946Z,7.52
2023-05-01T02:21:05.521Z,7.47
2023-05-01T02:23:33.661Z,7.41
2023-05-01T02:26:01.690Z,7.36
2023-05-01T02:28:29.244Z,7.35
2023-05-01T02:30:57.453Z,7.32
2023-05-01T02:33:25.946Z,7.33
2023-05-01T02:35:53.528Z,7.33
2023-05-01T02:38:21.780Z,7.33
2023-05-01T02:40:49.414Z,7.33
2023-05-01T02:43:17.359Z,7.35
2023-05-01T02:45:44.951Z,7.36
2023-05-01T02:48:12.680Z,7.35
2023-05-01T02:50:41.672Z,7.33
2023-05-01T02:53:09.828Z,7.33
2023-05-01T02:55:37.714Z,7.30
2023-05-01T02:58:05.281Z,7.29
2023-05-01T03:00:32.905Z,7.27
2023-05-01T03:03:00.960Z,7.27
2023-05-01T03:05:28.543Z,7.25
2023-05-01T03:07:56.108Z,7.25
2023-05-01T03:10:23.983Z,7.26
2023-05-01T03:12:51.504Z,7.27
2023-05-01T03:15:19.499Z,7.30
2023-05-01T03:17:47.984Z,7.30
2023-05-01T03:20:16.202Z,7.31
2023-05-01T03:22:44.224Z,7.33
2023-05-01T03:25:11.849Z,7.31
2023-05-01T03:27:39.783Z,7.26
2023-05-01T03:30:07.338Z,7.22
2023-05-01T03:32:34.949Z,7.21
2023-05-01T03:35:02.686Z,7.19
2023-05-01T03:37:30.456Z,7.17
2023-05-01T03:39:58.518Z,7.20
2023-05-01T03:42:26.339Z,7.21
2023-05-01T03:44:53.916Z,7.21
2023-05-01T03:47:21.580Z,7.21
2023-05-01T03:49:49.116Z,7.21
2023-05-01T03:52:17.094Z,7.20
2023-05-01T03:54:45.011Z,7.19
2023-05-01T03:57:12.569Z,7.21
2023-05-01T03:59:40.172Z,7.20
2023-05-01T04:02:08.109Z,7.21
2023-05-01T04:04:36.472Z,7.22
2023-05-01T04:07:04.111Z,7.25
2023-05-01T04:09:31.709Z,7.27
2023-05-01T04:11:59.224Z,7.31
2023-05-01T04:14:26.781Z,7.34
2023-05-01T04:16:54.724Z,7.38
2023-05-01T04:19:22.597Z,7.42
2023-05-01T04:21:50.131Z,7.46
2023-05-01T04:24:17.989Z,7.48
2023-05-01T04:26:45.558Z,7.53
2023-05-01T04:29:13.528Z,7.55
2023-05-01T04:31:41.932Z,7.60
2023-05-01T04:34:09.525Z,7.66
2023-05-01T04:36:37.241Z,7.69
2023-05-01T04:39:05.548Z,7.73
2023-05-01T04:41:33.464Z,7.77
2023-05-01T04:44:01.108Z,7.77
2023-05-01T04:46:29.112Z,7.77
2023-05-01T04:48:56.692Z,7.77
2023-05-01T04:51:24.220Z,7.77
2023-05-01T04:53:52.164Z,7.79
2023-05-01T04:56:20.149Z,7.80
2023-05-01T04:58:47.910Z,7.85
2023-05-01T05:01:15.640Z,7.91
2023-05-01T05:03:43.419Z,7.99
2023-05-01T05:06:11.820Z,8.07
2023-05-01T05:08:39.401Z,8.15
2023-05-01T05:11:07.351Z,8.25
2023-05-01T05:13:34.976Z,8.33
2023-05-01T05:16:02.571Z,8.41
2023-05-01T05:18:30.596Z,8.50
2023-05-01T05:20:58.179Z,8.57
2023-05-01T05:23:25.796Z,8.67
2023-05-01T05:25:53.375Z,8.75
2023-05-01T05:28:24.182Z,8.86
2023-05-01T05:30:52.128Z,8.99
2023-05-01T05:33:19.724Z,9.12
2023-05-01T05:35:47.536Z,9.26
2023-05-01T05:38:15.813Z,9.41
2023-05-01T05:40:43.365Z,9.57
2023-05-01T05:43:11.820Z,9.71
2023-05-01T05:45:39.601Z,9.86
2023-05-01T05:48:07.264Z,10.02
2023-05-01T05:50:35.144Z,10.20
2023-05-01T05:53:02.766Z,10.40
2023-05-01T05:55:30.711Z,10.61
2023-05-01T05:57:58.528Z,10.86
2023-05-01T06:00:26.124Z,11.11
2023-05-01T06:02:53.774Z,11.37
2023-05-01T06:05:21.427Z,11.61
2023-05-01T06:07:49.411Z,11.85
2023-05-01T06:10:17.785Z,12.06
2023-05-01T06:12:48.210Z,12.23
2023-05-01T06:15:24.889Z,12.40
2023-05-01T06:17:52.937Z,12.57
2023-05-01T06:20:20.883Z,12.74
2023-05-01T06:22:48.524Z,12.91
2023-05-01T06:25:16.150Z,13.10
2023-05-01T06:27:43.691Z,13.27
2023-05-01T06:30:11.663Z,13.41
2023-05-01T06:32:39.269Z,13.48
2023-05-01T06:35:06.830Z,13.53
2023-05-01T06:37:34.502Z,13.56
2023-05-01T06:40:02.057Z,13.58
2023-05-01T06:42:30.004Z,13.57
2023-05-01T06:44:57.715Z,13.56
2023-05-01T06:47:25.423Z,13.58
2023-05-01T06:49:53.066Z,13.60
2023-05-01T06:52:20.679Z,13.66
2023-05-01T06:54:48.950Z,13.73
2023-05-01T06:57:16.851Z,13.84
2023-05-01T06:59:44.501Z,13.92
2023-05-01T07:02:12.241Z,14.05
2023-05-01T07:04:39.853Z,14.16
2023-05-01T07:07:07.861Z,14.28
2023-05-01T07:09:36.124Z,14.39
2023-05-01T07:12:03.810Z,14.49
2023-05-01T07:14:31.426Z,14.60
2023-05-01T07:16:59.546Z,14.72
2023-05-01T07:19:27.556Z,14.83
2023-05-01T07:21:55.308Z,14.97
2023-05-01T07:24:22.913Z,15.06
2023-05-01T07:26:50.535Z,15.19
2023-05-01T07:29:18.220Z,15.31
2023-05-01T07:31:46.260Z,15.42
2023-05-01T07:34:14.003Z,15.52
2023-05-01T07:36:41.761Z,15.62
2023-05-01T07:39:09.445Z,15.74
2023-05-01T07:41:37.057Z,15.84
2023-05-01T07:44:05.118Z,15.95
2023-05-01T07:46:33.675Z,16.05
2023-05-01T07:49:01.599Z,16.18
2023-05-01T07:51:29.248Z,16.30
2023-05-01T07:53:56.963Z,16.44
2023-05-01T07:56:25.147Z,16.58
2023-05-01T07:58:53.625Z,16.70
2023-05-01T08:01:21.268Z,16.86
2023-05-01T08:03:50.908Z,17.00
2023-05-01T08:06:18.885Z,17.18
2023-05-01T08:08:46.901Z,17.33
2023-05-01T08:11:14.619Z,17.50
2023-05-01T08:13:42.317Z,17.66
2023-05-01T08:16:10.230Z,17.74
2023-05-01T08:18:37.892Z,17.81
2023-05-01T08:21:05.902Z,17.87
2023-05-01T08:23:33.511Z,17.90
2023-05-01T08:26:01.355Z,17.91
2023-05-01T08:28:29.088Z,18.00
2023-05-01T08:30:56.813Z,18.14
2023-05-01T08:33:24.923Z,18.31
2023-05-01T08:35:52.763Z,18.47
2023-05-01T08:38:20.581Z,18.58
2023-05-01T08:40:48.540Z,18.62
2023-05-01T08:43:16.440Z,18.68
2023-05-01T08:45:44.167Z,18.77
2023-05-01T08:48:12.161Z,18.85
2023-05-01T08:50:40.015Z,18.97
2023-05-01T08:53:07.813Z,19.08
2023-05-01T08:55:36.337Z,19.27
2023-05-01T08:58:04.386Z,19.42
2023-05-01T09:00:34.352Z,19.62
2023-05-01T09:03:02.491Z,19.74
2023-05-01T09:05:30.603Z,19.84
2023-05-01T09:07:58.487Z,19.91
2023-05-01T09:10:27.050Z,19.94
2023-05-01T09:12:54.807Z,19.97
2023-05-01T09:15:22.558Z,19.96
2023-05-01T09:17:50.315Z,19.97
2023-05-01T09:20:18.290Z,19.97
2023-05-01T09:22:46.454Z,19.95
2023-05-01T09:25:15.766Z,19.98
2023-05-01T09:27:43.507Z,19.97
2023-05-01T09:30:11.267Z,20.00
2023-05-01T09:32:40.208Z,20.04
2023-05-01T09:35:10.056Z,20.10
2023-05-01T09:37:37.801Z,20.14
2023-05-01T09:40:05.606Z,20.21
2023-05-01T09:42:33.833Z,20.30
2023-05-01T09:45:02.019Z,20.46
2023-05-01T09:47:30.888Z,20.80
2023-05-01T09:49:59.812Z,21.31
2023-05-01T09:52:27.911Z,21.86
2023-05-01T09:54:55.772Z,22.26
2023-05-01T09:57:23.770Z,22.87
2023-05-01T09:59:51.903Z,23.52
2023-05-01T10:02:19.948Z,24.06
2023-05-01T10:04:48.904Z,24.50
2023-05-01T10:07:16.678Z,24.83
2023-05-01T10:09:44.348Z,25.13
2023-05-01T10:12:12.831Z,25.45
2023-05-01T10:14:40.622Z,25.58
2023-05-01T10:17:08.492Z,25.63
2023-05-01T10:19:36.357Z,25.42
2023-05-01T10:22:04.110Z,24.95
2023-05-01T10:24:32.105Z,24.42
2023-05-01T10:27:00.049Z,23.84
2023-05-01T10:29:27.842Z,23.39
2023-05-01T10:31:56.003Z,23.08
2023-05-01T10:34:25.488Z,22.95
2023-05-01T10:36:55.520Z,22.84
2023-05-01T10:39:23.492Z,22.82
2023-05-01T10:41:51.274Z,22.63
2023-05-01T10:44:19.129Z,22.38
2023-05-01T10:46:47.080Z,22.15
2023-05-01T10:49:15.677Z,21.88
2023-05-01T10:51:43.842Z,21.68
2023-05-01T10:54:11.960Z,21.56
2023-05-01T10:56:39.863Z,21.51
2023-05-01T10:59:07.703Z,21.42
2023-05-01T11:01:36.066Z,21.39
2023-05-01T11:04:04.470Z,21.30
2023-05-01T11:06:32.459Z,21.21
2023-05-01T11:09:00.286Z,21.12
2023-05-01T11:11:28.096Z,21.06
2023-05-01T11:13:56.314Z,21.07
2023-05-01T11:16:24.861Z,21.09
2023-05-01T11:18:52.693Z,21.18
2023-05-01T11:21:20.915Z,21.33
2023-05-01T11:23:48.712Z,21.45
2023-05-01T11:26:17.071Z,21.41
2023-05-01T11:28:45.253Z,21.31
2023-05-01T11:31:13.036Z,21.28
2023-05-01T11:33:41.539Z,21.32
2023-05-01T11:36:09.348Z,21.33
2023-05-01T11:38:37.469Z,21.28
2023-05-01T11:41:05.954Z,21.17
2023-05-01T11:43:34.018Z,21.04
2023-05-01T11:46:04.809Z,20.98
2023-05-01T11:48:32.748Z,20.92
2023-05-01T11:51:01.011Z,20.76
2023-05-01T11:53:28.932Z,20.59
2023-05-01T11:55:57.142Z,20.39
2023-05-01T11:58:25.304Z,20.20
2023-05-01T12:00:53.162Z,20.06
2023-05-01T12:03:21.488Z,19.97
2023-05-01T12:05:49.407Z,19.90
2023-05-01T12:08:18.842Z,19.85
2023-05-01T12:10:46.801Z,19.80
2023-05-01T12:13:14.602Z,19.75
2023-05-01T12:15:42.714Z,19.73
2023-05-01T12:18:10.772Z,19.72
2023-05-01T12:20:38.688Z,19.72
2023-05-01T12:23:06.777Z,19.72
2023-05-01T12:25:35.232Z,19.69
2023-05-01T12:28:03.335Z,19.64
2023-05-01T12:30:31.342Z,19.59
2023-05-01T12:32:59.149Z,19.53
2023-05-01T12:35:27.057Z,19.47
2023-05-01T12:37:54.977Z,19.42
2023-05-01T12:40:23.871Z,19.38
2023-05-01T12:42:51.706Z,19.34
2023-05-01T12:45:19.541Z,19.34
2023-05-01T12:47:47.561Z,19.32
2023-05-01T12:50:15.309Z,19.33
2023-05-01T12:52:43.520Z,19.35
2023-05-01T12:55:12.793Z,19.38
2023-05-01T12:57:40.544Z,19.43
2023-05-01T13:00:10.860Z,19.52
2023-05-01T13:02:39.063Z,19.66
2023-05-01T13:05:07.478Z,19.83
2023-05-01T13:07:35.861Z,20.04
2023-05-01T13:10:04.231Z,20.33
2023-05-01T13:12:32.726Z,20.99
2023-05-01T13:15:00.723Z,21.82
2023-05-01T13:17:29.397Z,22.25
2023-05-01T13:19:58.082Z,23.11
2023-05-01T13:22:26.283Z,23.95
2023-05-01T13:24:54.973Z,24.79
2023-05-01T13:27:23.028Z,25.38
2023-05-01T13:29:51.300Z,25.51
2023-05-01T13:32:19.287Z,25.62
2023-05-01T13:34:47.430Z,25.85
2023-05-01T13:37:15.288Z,25.49
2023-05-01T13:39:43.246Z,24.87
2023-05-01T13:42:11.639Z,24.18
2023-05-01T13:44:39.587Z,23.55
2023-05-01T13:47:07.738Z,23.00
2023-05-01T13:49:35.462Z,22.57
2023-05-01T13:52:03.493Z,22.17
2023-05-01T13:54:31.471Z,21.77
2023-05-01T13:56:59.699Z,21.46
2023-05-01T13:59:27.558Z,21.21
2023-05-01T14:01:55.505Z,21.00
2023-05-01T14:04:24.079Z,20.83
2023-05-01T14:06:52.447Z,20.66
2023-05-01T14:09:20.601Z,20.51
2023-05-01T14:11:48.352Z,20.34
2023-05-01T14:14:16.365Z,20.22
2023-05-01T14:16:45.820Z,20.08
2023-05-01T14:19:14.257Z,19.94
2023-05-01T14:21:42.030Z,19.83
2023-05-01T14:24:10.164Z,19.73
2023-05-01T14:26:39.587Z,19.63
2023-05-01T14:29:09.039Z,19.58
2023-05-01T14:31:37.686Z,19.51
2023-05-01T14:34:06.510Z,19.46
2023-05-01T14:36:34.223Z,19.41
2023-05-01T14:39:02.223Z,19.36
2023-05-01T14:41:30.352Z,19.33
2023-05-01T14:43:58.725Z,19.30
2023-05-01T14:46:27.048Z,19.25
2023-05-01T14:48:55.019Z,19.20
2023-05-01T14:51:22.958Z,19.18
2023-05-01T14:53:51.088Z,19.17
2023-05-01T14:56:19.413Z,19.16
2023-05-01T14:58:47.793Z,19.16
2023-05-01T15:01:15.831Z,19.18
2023-05-01T15:03:44.241Z,19.18
2023-05-01T15:06:12.266Z,19.21
2023-05-01T15:08:40.830Z,19.23
2023-05-01T15:11:09.045Z,19.26
2023-05-01T15:13:37.092Z,19.34
2023-05-01T15:16:05.140Z,19.44
2023-05-01T15:18:32.929Z,19.66
2023-05-01T15:21:01.135Z,20.39
2023-05-01T15:23:29.359Z,22.09
2023-05-01T15:25:57.385Z,23.21
2023-05-01T15:28:25.453Z,23.23
2023-05-01T15:30:53.251Z,22.99
2023-05-01T15:33:21.575Z,22.65
2023-05-01T15:35:51.342Z,22.46
2023-05-01T15:38:20.807Z,22.21
2023-05-01T15:40:50.185Z,21.91
2023-05-01T15:43:18.068Z,21.66
2023-05-01T15:45:46.795Z,21.41
2023-05-01T15:48:14.940Z,21.16
2023-05-01T15:50:42.761Z,20.92
2023-05-01T15:53:10.534Z,20.72
2023-05-01T15:55:38.306Z,20.54
2023-05-01T15:58:06.954Z,20.35
2023-05-01T16:00:36.198Z,20.21
2023-05-01T16:03:04.814Z,20.06
2023-05-01T16:05:32.862Z,19.93
2023-05-01T16:08:00.780Z,19.76
2023-05-01T16:10:28.889Z,19.53
2023-05-01T16:12:57.063Z,19.27
2023-05-01T16:15:25.027Z,18.98
2023-05-01T16:17:55.031Z,18.70
2023-05-01T16:20:23.225Z,18.37
2023-05-01T16:22:52.677Z,18.01
2023-05-01T16:25:21.232Z,17.69
2023-05-01T16:27:49.072Z,17.41
2023-05-01T16:30:16.952Z,17.17
2023-05-01T16:32:44.838Z,16.82
2023-05-01T16:35:13.010Z,16.39
2023-05-01T16:37:41.683Z,15.98
2023-05-01T16:40:09.597Z,15.65
2023-05-01T16:42:38.725Z,15.42
2023-05-01T16:45:08.684Z,15.22
2023-05-01T16:47:37.044Z,15.01
2023-05-01T16:50:05.092Z,14.83
2023-05-01T16:52:33.066Z,14.66
2023-05-01T16:55:01.932Z,14.53
2023-05-01T16:57:29.775Z,14.43
2023-05-01T16:59:58.472Z,14.35
2023-05-01T17:02:26.763Z,14.30
2023-05-01T17:04:54.926Z,14.25
2023-05-01T17:07:22.916Z,14.22
2023-05-01T17:09:50.774Z,14.19
2023-05-01T17:12:18.557Z,14.15
2023-05-01T17:14:46.464Z,14.13
2023-05-01T17:17:14.177Z,14.12
2023-05-01T17:19:42.061Z,14.14
2023-05-01T17:22:10.024Z,14.15
2023-05-01T17:24:38.187Z,14.16
2023-05-01T17:27:07.949Z,14.17
2023-05-01T17:29:35.755Z,14.18
2023-05-01T17:32:04.728Z,14.20
2023-05-01T17:34:32.560Z,14.20
2023-05-01T17:37:01.178Z,14.19
2023-05-01T17:39:29.513Z,14.24
2023-05-01T17:41:57.429Z,14.29
2023-05-01T17:44:25.375Z,14.36
2023-05-01T17:46:53.178Z,14.42
2023-05-01T17:49:21.914Z,14.48
2023-05-01T17:51:49.916Z,14.49
2023-05-01T17:54:17.916Z,14.50
2023-05-01T17:56:46.087Z,14.49
2023-05-01T17:59:14.143Z,14.48
2023-05-01T18:01:42.497Z,14.46
2023-05-01T18:04:11.054Z,14.44
2023-05-01T18:06:39.220Z,14.38
2023-05-01T18:09:07.912Z,14.35
2023-05-01T18:11:35.818Z,14.30
2023-05-01T18:14:05.133Z,14.25
2023-05-01T18:16:32.914Z,14.22
2023-05-01T18:19:00.930Z,14.16
2023-05-01T18:21:28.898Z,14.11
2023-05-01T18:23:56.665Z,14.08
2023-05-01T18:26:26.750Z,14.04
2023-05-01T18:28:55.368Z,13.99
2023-05-01T18:31:23.402Z,13.95
2023-05-01T18:33:51.619Z,13.91
2023-05-01T18:36:19.551Z,13.88
2023-05-01T18:38:47.566Z,13.87
2023-05-01T18:41:15.802Z,13.86
2023-05-01T18:43:43.661Z,13.84
2023-05-01T18:46:11.558Z,13.83
2023-05-01T18:48:39.574Z,13.81
2023-05-01T18:51:09.373Z,13.78
2023-05-01T18:53:38.081Z,13.74
2023-05-01T18:56:06.241Z,13.71
2023-05-01T18:58:34.079Z,13.66
2023-05-01T19:01:02.150Z,13.61
2023-05-01T19:03:30.547Z,13.54
2023-05-01T19:05:59.183Z,13.47
2023-05-01T19:08:26.948Z,13.37
2023-05-01T19:10:54.850Z,13.30
2023-05-01T19:13:22.794Z,13.25
2023-05-01T19:15:50.683Z,13.19
2023-05-01T19:18:20.010Z,13.16
2023-05-01T19:20:48.050Z,13.11
2023-05-01T19:23:15.844Z,13.07
2023-05-01T19:25:43.715Z,13.04
2023-05-01T19:28:11.660Z,13.02
2023-05-01T19:30:39.406Z,13.00
2023-05-01T19:33:07.267Z,12.99
2023-05-01T19:35:35.860Z,12.98
2023-05-01T19:38:03.672Z,12.95
2023-05-01T19:40:31.802Z,12.95
2023-05-01T19:42:59.756Z,12.93
2023-05-01T19:45:27.629Z,12.92
2023-05-01T19:47:55.650Z,12.93
2023-05-01T19:50:23.706Z,12.93
2023-05-01T19:52:52.026Z,12.94
2023-05-01T19:55:20.295Z,12.95
2023-05-01T19:57:48.283Z,12.96
2023-05-01T20:00:16.206Z,12.95
2023-05-01T20:02:44.559Z,12.94
2023-05-01T20:05:13.733Z,12.93
2023-05-01T20:07:41.850Z,12.91
2023-05-01T20:10:09.908Z,12.92
2023-05-01T20:12:38.562Z,12.93
2023-05-01T20:15:06.444Z,12.94
2023-05-01T20:17:34.978Z,12.95
2023-05-01T20:20:03.447Z,12.97
2023-05-01T20:22:31.225Z,12.99
2023-05-01T20:25:00.670Z,13.04
2023-05-01T20:27:28.708Z,13.09
2023-05-01T20:29:57.522Z,13.13
2023-05-01T20:32:25.617Z,13.16
2023-05-01T20:34:55.614Z,13.18
2023-05-01T20:37:23.447Z,13.17
2023-05-01T20:39:51.184Z,13.14
2023-05-01T20:42:19.024Z,13.09
2023-05-01T20:44:46.864Z,13.08
2023-05-01T20:47:15.223Z,13.04
2023-05-01T20:49:43.054Z,13.00
2023-05-01T20:52:11.086Z,12.94
2023-05-01T20:54:39.546Z,12.92
2023-05-01T20:57:07.869Z,12.90
2023-05-01T20:59:35.730Z,12.89
2023-05-01T21:02:03.534Z,12.90
2023-05-01T21:04:31.503Z,12.87
2023-05-01T21:06:59.408Z,12.87
2023-05-01T21:09:27.468Z,12.87
2023-05-01T21:11:55.318Z,12.88
2023-05-01T21:14:23.137Z,12.93
2023-05-01T21:16:50.857Z,12.96
2023-05-01T21:19:19.034Z,13.02
2023-05-01T21:21:47.066Z,13.08
2023-05-01T21:24:14.890Z,13.13
2023-05-01T21:26:42.762Z,13.18
2023-05-01T21:29:10.702Z,13.22
2023-05-01T21:31:38.786Z,13.27
2023-05-01T21:34:07.095Z,13.29
2023-05-01T21:36:34.707Z,13.32
2023-05-01T21:39:02.469Z,13.33
2023-05-01T21:41:30.194Z,13.34
2023-05-01T21:43:58.258Z,13.35
2023-05-01T21:46:26.429Z,13.36
2023-05-01T21:48:54.157Z,13.36
2023-05-01T21:51:22.201Z,13.37
2023-05-01T21:53:50.035Z,13.38
2023-05-01T21:56:18.164Z,13.39
2023-05-01T21:58:46.292Z,13.40
2023-05-01T22:01:14.008Z,13.41
2023-05-01T22:03:42.744Z,13.43
2023-05-01T22:06:10.561Z,13.43
2023-05-01T22:08:38.558Z,13.42
2023-05-01T22:11:08.462Z,13.44
2023-05-01T22:13:36.614Z,13.43
2023-05-01T22:16:04.366Z,13.43
2023-05-01T22:18:32.272Z,13.42
2023-05-01T22:21:01.770Z,13.44
2023-05-01T22:23:29.694Z,13.43
2023-05-01T22:26:00.362Z,13.44
2023-05-01T22:28:27.996Z,13.41
2023-05-01T22:30:55.818Z,13.40
2023-05-01T22:33:23.850Z,13.37
2023-05-01T22:35:52.302Z,13.35
2023-05-01T22:38:19.947Z,13.34
2023-05-01T22:40:47.630Z,13.32
2023-05-01T22:43:15.575Z,13.27
2023-05-01T22:45:43.609Z,13.24
2023-05-01T22:48:12.246Z,13.18
2023-05-01T22:50:39.957Z,13.10
2023-05-01T22:53:07.698Z,13.03
2023-05-01T22:55:35.360Z,12.99
2023-05-01T22:58:03.593Z,12.95
2023-05-01T23:00:31.599Z,12.92
2023-05-01T23:02:59.357Z,12.90
2023-05-01T23:05:27.039Z,12.86
2023-05-01T23:07:54.587Z,12.81
2023-05-01T23:10:22.624Z,12.80
2023-05-01T23:12:50.735Z,12.78
2023-05-01T23:15:18.660Z,12.76
2023-05-01T23:17:46.381Z,12.70
2023-05-01T23:20:14.388Z,12.67
2023-05-01T23:22:42.337Z,12.65
2023-05-01T23:25:10.022Z,12.66
2023-05-01T23:27:39.353Z,12.66
2023-05-01T23:30:07.934Z,12.67
2023-05-01T23:32:35.653Z,12.68
2023-05-01T23:35:04.166Z,12.69
2023-05-01T23:37:31.801Z,12.69
2023-05-01T23:40:01.035Z,12.67
2023-05-01T23:42:28.843Z,12.67
2023-05-01T23:44:56.448Z,12.66
2023-05-01T23:47:24.451Z,12.67
2023-05-01T23:49:52.112Z,12.67
2023-05-01T23:52:19.711Z,12.67
2023-05-01T23:54:47.330Z,12.67
2023-05-01T23:57:14.878Z,12.66
2023-05-01T23:59:42.968Z,12.66
